BEE44C EGAC-EGPH
Flight info
| Callsign | BEE44C |
|---|---|
| Flight time | 0h 28m |
| Altitude | 17000 |
| Route | MAGEE DCT BLACA P600 TUNSO |
| Aircraft | DH8D/M-SDE2E3FGRY/H |
Departure
| Time | 2026-05-09 10:48 |
|---|---|
| Airport | George Best Belfast City Airport (EGAC) |
Arrival
| Time | 2026-05-09 11:17 |
|---|---|
| Airport | Edinburgh Airport (EGPH) |
| Time | Latitude | Longitude | Altitude | Speed | Heading |
|---|---|---|---|---|---|
| 2026-05-09 10:34 | 54.61657 | -5.86970 | 15 ft | 0 kts | 123° |
| 2026-05-09 10:41 | 54.61656 | -5.86970 | 15 ft | 0 kts | 123° |
| 2026-05-09 10:42 | 54.61660 | -5.86980 | 15 ft | 2 kts | 123° |
| 2026-05-09 10:42 | 54.61668 | -5.87002 | 14 ft | 2 kts | 123° |
| 2026-05-09 10:42 | 54.61677 | -5.87022 | 15 ft | 2 kts | 146° |
| 2026-05-09 10:43 | 54.61691 | -5.87027 | 15 ft | 2 kts | 192° |
| 2026-05-09 10:43 | 54.61700 | -5.87020 | 15 ft | 0 kts | 215° |
| 2026-05-09 10:45 | 54.61680 | -5.87045 | 15 ft | 8 kts | 214° |
| 2026-05-09 10:46 | 54.61448 | -5.87328 | 14 ft | 15 kts | 213° |
| 2026-05-09 10:46 | 54.61391 | -5.87424 | 14 ft | 11 kts | 231° |
| 2026-05-09 10:46 | 54.61323 | -5.87515 | 14 ft | 13 kts | 214° |
| 2026-05-09 10:46 | 54.61240 | -5.87616 | 13 ft | 14 kts | 215° |
| 2026-05-09 10:47 | 54.61174 | -5.87695 | 12 ft | 12 kts | 215° |
| 2026-05-09 10:47 | 54.61102 | -5.87782 | 12 ft | 13 kts | 219° |
| 2026-05-09 10:47 | 54.61092 | -5.87926 | 13 ft | 12 kts | 302° |
| 2026-05-09 10:47 | 54.61135 | -5.88016 | 14 ft | 4 kts | 331° |
| 2026-05-09 10:48 | 54.61160 | -5.88020 | 14 ft | 2 kts | 11° |
| 2026-05-09 10:48 | 54.61263 | -5.87905 | 16 ft | 58 kts | 35° |
| 2026-05-09 10:48 | 54.61834 | -5.87204 | 122 ft | 126 kts | 35° |
| 2026-05-09 10:48 | 54.62542 | -5.86273 | 845 ft | 134 kts | 32° |
| 2026-05-09 10:49 | 54.63296 | -5.85309 | 1580 ft | 149 kts | 33° |
| 2026-05-09 10:49 | 54.64187 | -5.84193 | 2137 ft | 166 kts | 32° |
| 2026-05-09 10:49 | 54.65137 | -5.83031 | 2818 ft | 173 kts | 32° |
| 2026-05-09 10:49 | 54.66117 | -5.81868 | 3559 ft | 177 kts | 33° |
| 2026-05-09 10:50 | 54.67080 | -5.80489 | 4128 ft | 193 kts | 40° |
| 2026-05-09 10:50 | 54.68089 | -5.78819 | 4675 ft | 206 kts | 42° |
| 2026-05-09 10:50 | 54.69131 | -5.77090 | 5324 ft | 213 kts | 41° |
| 2026-05-09 10:50 | 54.70227 | -5.75282 | 5955 ft | 220 kts | 42° |
| 2026-05-09 10:51 | 54.71347 | -5.73447 | 6632 ft | 226 kts | 41° |
| 2026-05-09 10:51 | 54.72486 | -5.71585 | 7334 ft | 230 kts | 41° |
| 2026-05-09 10:51 | 54.73642 | -5.69701 | 8040 ft | 234 kts | 41° |
| 2026-05-09 10:51 | 54.74842 | -5.67749 | 8746 ft | 238 kts | 41° |
| 2026-05-09 10:52 | 54.76053 | -5.65780 | 9453 ft | 242 kts | 41° |
| 2026-05-09 10:52 | 54.77273 | -5.63797 | 10147 ft | 246 kts | 41° |
| 2026-05-09 10:52 | 54.78531 | -5.61738 | 10857 ft | 251 kts | 43° |
| 2026-05-09 10:52 | 54.79491 | -5.59224 | 11544 ft | 256 kts | 66° |
| 2026-05-09 10:53 | 54.80103 | -5.56295 | 12230 ft | 261 kts | 70° |
| 2026-05-09 10:53 | 54.80700 | -5.53330 | 12879 ft | 267 kts | 70° |
| 2026-05-09 10:53 | 54.81306 | -5.50328 | 13557 ft | 272 kts | 70° |
| 2026-05-09 10:53 | 54.81933 | -5.47225 | 14240 ft | 275 kts | 70° |
| 2026-05-09 10:54 | 54.82568 | -5.44098 | 14898 ft | 277 kts | 70° |
| 2026-05-09 10:54 | 54.83218 | -5.40899 | 15459 ft | 283 kts | 70° |
| 2026-05-09 10:54 | 54.83870 | -5.37690 | 16108 ft | 285 kts | 70° |
| 2026-05-09 10:54 | 54.84533 | -5.34431 | 16599 ft | 292 kts | 70° |
| 2026-05-09 10:55 | 54.85219 | -5.31056 | 16997 ft | 302 kts | 70° |
| 2026-05-09 10:55 | 54.85935 | -5.27532 | 17184 ft | 317 kts | 70° |
| 2026-05-09 10:55 | 54.86682 | -5.23852 | 17236 ft | 334 kts | 70° |
| 2026-05-09 10:55 | 54.87473 | -5.19967 | 17242 ft | 346 kts | 70° |
| 2026-05-09 10:56 | 54.88634 | -5.16312 | 17224 ft | 352 kts | 48° |
| 2026-05-09 10:56 | 54.90587 | -5.13755 | 17263 ft | 352 kts | 25° |
| 2026-05-09 10:56 | 54.92783 | -5.11837 | 17240 ft | 358 kts | 23° |
| 2026-05-09 10:56 | 54.95027 | -5.09925 | 17234 ft | 362 kts | 23° |
| 2026-05-09 10:57 | 54.97281 | -5.08005 | 17229 ft | 365 kts | 23° |
| 2026-05-09 10:57 | 54.99556 | -5.06057 | 17228 ft | 367 kts | 23° |
| 2026-05-09 10:57 | 55.01849 | -5.04085 | 17227 ft | 369 kts | 23° |
| 2026-05-09 10:57 | 55.04164 | -5.02086 | 17228 ft | 370 kts | 23° |
| 2026-05-09 10:58 | 55.06452 | -5.00105 | 17229 ft | 370 kts | 23° |
| 2026-05-09 10:58 | 55.08751 | -4.98102 | 17230 ft | 371 kts | 24° |
| 2026-05-09 10:58 | 55.10865 | -4.95476 | 17113 ft | 379 kts | 44° |
| 2026-05-09 10:58 | 55.12259 | -4.91599 | 17003 ft | 382 kts | 64° |
| 2026-05-09 10:59 | 55.13314 | -4.87446 | 16760 ft | 370 kts | 66° |
| 2026-05-09 10:59 | 55.14319 | -4.83387 | 16544 ft | 355 kts | 66° |
| 2026-05-09 10:59 | 55.15266 | -4.79532 | 16360 ft | 343 kts | 66° |
| 2026-05-09 10:59 | 55.16269 | -4.75804 | 16137 ft | 334 kts | 58° |
| 2026-05-09 11:00 | 55.17784 | -4.72703 | 15909 ft | 339 kts | 41° |
| 2026-05-09 11:00 | 55.19540 | -4.69926 | 15668 ft | 345 kts | 39° |
| 2026-05-09 11:00 | 55.21333 | -4.67157 | 15419 ft | 350 kts | 39° |
| 2026-05-09 11:00 | 55.23188 | -4.64316 | 15175 ft | 352 kts | 39° |
| 2026-05-09 11:01 | 55.25035 | -4.61500 | 14919 ft | 355 kts | 39° |
| 2026-05-09 11:01 | 55.26883 | -4.58681 | 14664 ft | 356 kts | 39° |
| 2026-05-09 11:01 | 55.28761 | -4.55822 | 14420 ft | 356 kts | 39° |
| 2026-05-09 11:01 | 55.30617 | -4.53001 | 14146 ft | 356 kts | 39° |
| 2026-05-09 11:02 | 55.32474 | -4.50180 | 13783 ft | 349 kts | 39° |
| 2026-05-09 11:02 | 55.34268 | -4.47449 | 13412 ft | 343 kts | 39° |
| 2026-05-09 11:02 | 55.36060 | -4.44720 | 13008 ft | 337 kts | 39° |
| 2026-05-09 11:02 | 55.37809 | -4.42058 | 12606 ft | 333 kts | 39° |
| 2026-05-09 11:03 | 55.39550 | -4.39412 | 12206 ft | 329 kts | 39° |
| 2026-05-09 11:03 | 55.41259 | -4.36813 | 11850 ft | 326 kts | 39° |
| 2026-05-09 11:03 | 55.42960 | -4.34232 | 11456 ft | 323 kts | 40° |
| 2026-05-09 11:03 | 55.44676 | -4.31634 | 11090 ft | 320 kts | 39° |
| 2026-05-09 11:04 | 55.46322 | -4.29146 | 10817 ft | 314 kts | 39° |
| 2026-05-09 11:04 | 55.47955 | -4.26681 | 10538 ft | 298 kts | 39° |
| 2026-05-09 11:04 | 55.49480 | -4.24377 | 10274 ft | 286 kts | 39° |
| 2026-05-09 11:04 | 55.50977 | -4.22106 | 10026 ft | 281 kts | 39° |
| 2026-05-09 11:05 | 55.52459 | -4.19855 | 9773 ft | 283 kts | 39° |
| 2026-05-09 11:05 | 55.53945 | -4.17601 | 9530 ft | 284 kts | 39° |
| 2026-05-09 11:05 | 55.55442 | -4.15332 | 9294 ft | 285 kts | 39° |
| 2026-05-09 11:05 | 55.56939 | -4.13066 | 9044 ft | 285 kts | 39° |
| 2026-05-09 11:06 | 55.58447 | -4.10789 | 8794 ft | 284 kts | 39° |
| 2026-05-09 11:06 | 55.59938 | -4.08534 | 8522 ft | 280 kts | 39° |
| 2026-05-09 11:06 | 55.61395 | -4.06333 | 8276 ft | 275 kts | 39° |
| 2026-05-09 11:06 | 55.62846 | -4.04148 | 8028 ft | 270 kts | 39° |
| 2026-05-09 11:07 | 55.64260 | -4.02032 | 7771 ft | 266 kts | 39° |
| 2026-05-09 11:07 | 55.65652 | -3.99955 | 7513 ft | 262 kts | 39° |
| 2026-05-09 11:07 | 55.67035 | -3.97904 | 7248 ft | 259 kts | 39° |
| 2026-05-09 11:07 | 55.68415 | -3.95859 | 6996 ft | 256 kts | 39° |
| 2026-05-09 11:08 | 55.69775 | -3.93847 | 6746 ft | 254 kts | 39° |
| 2026-05-09 11:08 | 55.71126 | -3.91860 | 6487 ft | 251 kts | 39° |
| 2026-05-09 11:08 | 55.72461 | -3.89902 | 6227 ft | 249 kts | 39° |
| 2026-05-09 11:08 | 55.73835 | -3.88097 | 5968 ft | 247 kts | 34° |
| 2026-05-09 11:09 | 55.75256 | -3.86358 | 5705 ft | 245 kts | 34° |
| 2026-05-09 11:09 | 55.76644 | -3.84657 | 5449 ft | 244 kts | 34° |
| 2026-05-09 11:09 | 55.78022 | -3.82968 | 5194 ft | 242 kts | 34° |
| 2026-05-09 11:09 | 55.79415 | -3.81257 | 4938 ft | 240 kts | 34° |
| 2026-05-09 11:10 | 55.80622 | -3.79244 | 4680 ft | 239 kts | 53° |
| 2026-05-09 11:10 | 55.81461 | -3.76778 | 4543 ft | 226 kts | 59° |
| 2026-05-09 11:10 | 55.82239 | -3.74508 | 4438 ft | 208 kts | 56° |
| 2026-05-09 11:10 | 55.82973 | -3.72422 | 4365 ft | 192 kts | 57° |
| 2026-05-09 11:11 | 55.83651 | -3.70429 | 4322 ft | 187 kts | 57° |
| 2026-05-09 11:11 | 55.84331 | -3.68441 | 4087 ft | 189 kts | 57° |
| 2026-05-09 11:11 | 55.85014 | -3.66472 | 3791 ft | 185 kts | 56° |
| 2026-05-09 11:11 | 55.85662 | -3.64601 | 3464 ft | 169 kts | 56° |
| 2026-05-09 11:12 | 55.86250 | -3.62880 | 3264 ft | 158 kts | 57° |
| 2026-05-09 11:12 | 55.86806 | -3.61241 | 3119 ft | 155 kts | 57° |
| 2026-05-09 11:12 | 55.87363 | -3.59611 | 2888 ft | 155 kts | 57° |
| 2026-05-09 11:12 | 55.87913 | -3.58000 | 2649 ft | 150 kts | 57° |
| 2026-05-09 11:13 | 55.88446 | -3.56446 | 2426 ft | 144 kts | 57° |
| 2026-05-09 11:13 | 55.88961 | -3.54937 | 2218 ft | 140 kts | 58° |
| 2026-05-09 11:13 | 55.89460 | -3.53464 | 2047 ft | 142 kts | 58° |
| 2026-05-09 11:13 | 55.89980 | -3.51920 | 1877 ft | 146 kts | 58° |
| 2026-05-09 11:14 | 55.90512 | -3.50359 | 1677 ft | 148 kts | 58° |
| 2026-05-09 11:14 | 55.91033 | -3.48853 | 1481 ft | 135 kts | 58° |
| 2026-05-09 11:14 | 55.91497 | -3.47516 | 1288 ft | 122 kts | 59° |
| 2026-05-09 11:14 | 55.91917 | -3.46272 | 1105 ft | 113 kts | 59° |
| 2026-05-09 11:15 | 55.92317 | -3.45091 | 968 ft | 110 kts | 59° |
| 2026-05-09 11:15 | 55.92712 | -3.43914 | 827 ft | 111 kts | 60° |
| 2026-05-09 11:15 | 55.93117 | -3.42729 | 682 ft | 112 kts | 59° |
| 2026-05-09 11:15 | 55.93523 | -3.41550 | 552 ft | 111 kts | 59° |
| 2026-05-09 11:16 | 55.93924 | -3.40385 | 402 ft | 112 kts | 60° |
| 2026-05-09 11:16 | 55.94330 | -3.39204 | 236 ft | 111 kts | 59° |
| 2026-05-09 11:16 | 55.94729 | -3.38030 | 115 ft | 107 kts | 58° |
| 2026-05-09 11:16 | 55.95056 | -3.37071 | 101 ft | 64 kts | 58° |
| 2026-05-09 11:17 | 55.95208 | -3.36625 | 102 ft | 24 kts | 57° |
| 2026-05-09 11:17 | 55.95256 | -3.36454 | 104 ft | 8 kts | 97° |
| 2026-05-09 11:17 | 55.95217 | -3.36379 | 104 ft | 9 kts | 146° |
| 2026-05-09 11:17 | 55.95177 | -3.36334 | 104 ft | 0 kts | 148° |
| 2026-05-09 11:18 | 55.95171 | -3.36327 | 104 ft | 4 kts | 148° |
| 2026-05-09 11:18 | 55.95124 | -3.36324 | 104 ft | 8 kts | 220° |
| 2026-05-09 11:18 | 55.95078 | -3.36400 | 104 ft | 9 kts | 189° |
| 2026-05-09 11:19 | 55.95016 | -3.36399 | 104 ft | 9 kts | 225° |
| 2026-05-09 11:19 | 55.94978 | -3.36505 | 104 ft | 11 kts | 238° |
| 2026-05-09 11:19 | 55.94937 | -3.36629 | 104 ft | 6 kts | 238° |
| 2026-05-09 11:19 | 55.94910 | -3.36666 | 104 ft | 4 kts | 165° |
| 2026-05-09 11:20 | 55.94887 | -3.36644 | 104 ft | 3 kts | 146° |
| 2026-05-09 11:20 | 55.94869 | -3.36621 | 104 ft | 2 kts | 144° |
| 2026-05-09 11:20 | 55.94855 | -3.36604 | 104 ft | 0 kts | 144° |